Time;durP1;ratioP1;P1;durP2;ratioP2;P2;SDS_P1;SDS_P2;PMS_P1;PMS_P2;Temp;Humidity;BMP_temperature;BMP_pressure;BME280_temperature;BME280_humidity;BME280_pressure;Samples;Min_cycle;Max_cycle;Signal;HPM_P1;HPM_P2
2021/08/23 00:00:24;;;;;;;29.97;26.97;;;;;;;18.11;100.00;99013.53;2081434;28;20959;-77
2021/08/23 00:01:25;;;;;;;29.43;26.73;;;;;;;18.06;100.00;99009.16;2081389;28;20832;-76
2021/08/23 00:02:26;;;;;;;30.27;27.33;;;;;;;18.04;100.00;99006.81;2080597;28;20247;-77
2021/08/23 00:03:28;;;;;;;30.27;27.43;;;;;;;18.03;100.00;99007.16;2080224;28;20461;-77
2021/08/23 00:04:28;;;;;;;30.47;27.43;;;;;;;18.02;100.00;99008.31;2080638;28;20230;-76
2021/08/23 00:05:31;;;;;;;30.17;27.27;;;;;;;18.00;100.00;99005.97;2081388;28;20435;-77
2021/08/23 00:06:32;;;;;;;29.43;26.73;;;;;;;17.97;100.00;99008.53;2080535;28;20219;-77
2021/08/23 00:07:34;;;;;;;28.53;25.60;;;;;;;17.96;100.00;99013.16;2080556;28;20462;-77
2021/08/23 00:08:34;;;;;;;30.47;27.57;;;;;;;17.93;100.00;99011.16;2080727;28;20220;-77
2021/08/23 00:09:37;;;;;;;29.13;26.40;;;;;;;17.92;100.00;99014.22;2080557;28;20931;-76
2021/08/23 00:10:38;;;;;;;28.83;26.33;;;;;;;17.91;100.00;99015.34;2080283;28;20991;-76
2021/08/23 00:11:39;;;;;;;29.27;26.47;;;;;;;17.88;100.00;99011.41;2081163;28;20811;-76
2021/08/23 00:12:40;;;;;;;29.23;26.50;;;;;;;17.87;100.00;99009.06;2080532;28;20289;-76
2021/08/23 00:13:41;;;;;;;29.70;26.87;;;;;;;17.85;100.00;99005.94;2080608;28;20447;-75
2021/08/23 00:14:42;;;;;;;29.47;26.70;;;;;;;17.86;100.00;99008.28;2080283;28;20289;-75
2021/08/23 00:15:45;;;;;;;29.60;26.50;;;;;;;17.84;100.00;99007.84;2080576;28;20443;-75
2021/08/23 00:16:46;;;;;;;28.90;26.33;;;;;;;17.80;100.00;99004.25;2079778;28;20220;-75
2021/08/23 00:17:47;;;;;;;29.60;26.77;;;;;;;17.77;100.00;99004.94;2072245;28;21015;-76
2021/08/23 00:18:48;;;;;;;30.47;27.53;;;;;;;17.71;100.00;99004.41;2080255;28;20263;-75
2021/08/23 00:19:50;;;;;;;29.37;26.43;;;;;;;17.71;100.00;99001.69;2081442;28;20435;-75
2021/08/23 00:20:55;;;;;;;30.63;27.73;;;;;;;17.69;100.00;98997.75;2080608;28;20753;-75
2021/08/23 00:22:07;;;;;;;30.40;27.37;;;;;;;17.67;100.00;98995.41;2080231;28;20957;-76
2021/08/23 00:23:10;;;;;;;30.10;27.30;;;;;;;17.69;100.00;99000.47;2080193;28;20828;-76
2021/08/23 00:24:22;;;;;;;29.97;27.27;;;;;;;17.69;100.00;98998.53;2080536;28;20979;-76
2021/08/23 00:25:23;;;;;;;29.87;27.07;;;;;;;17.65;100.00;99002.28;2080755;28;20541;-76
2021/08/23 00:26:24;;;;;;;30.37;27.50;;;;;;;17.63;100.00;99005.31;2080030;28;20466;-76
2021/08/23 00:27:25;;;;;;;29.30;26.60;;;;;;;17.61;100.00;99004.09;2080428;28;20246;-75
2021/08/23 00:28:27;;;;;;;28.80;26.20;;;;;;;17.57;100.00;98995.91;2080295;28;20531;-76
2021/08/23 00:29:28;;;;;;;29.67;26.87;;;;;;;17.57;100.00;99000.53;2080492;28;20243;-76
2021/08/23 00:30:29;;;;;;;30.00;27.07;;;;;;;17.57;100.00;98997.81;2081132;28;20454;-76
2021/08/23 00:31:30;;;;;;;30.10;27.20;;;;;;;17.54;100.00;98996.56;2081141;28;20309;-75
2021/08/23 00:32:32;;;;;;;31.20;27.83;;;;;;;17.53;100.00;99000.41;2081029;28;20461;-75
2021/08/23 00:33:33;;;;;;;37.47;27.97;;;;;;;17.51;100.00;98998.06;2080326;28;20269;-75
2021/08/23 00:34:34;;;;;;;30.10;27.13;;;;;;;17.50;100.00;98996.50;2080245;28;20489;-76
2021/08/23 00:35:35;;;;;;;29.67;26.87;;;;;;;17.50;100.00;99001.88;2081100;28;20936;-75
2021/08/23 00:36:37;;;;;;;31.00;28.20;;;;;;;17.49;100.00;99005.72;2081352;28;20282;-76
2021/08/23 00:37:39;;;;;;;30.53;27.63;;;;;;;17.47;100.00;99002.59;2080719;28;20541;-75
2021/08/23 00:38:40;;;;;;;30.17;27.40;;;;;;;17.47;100.00;98994.47;2081002;28;20514;-77
2021/08/23 00:39:41;;;;;;;30.70;27.80;;;;;;;17.46;100.00;98990.22;2081076;28;20454;-76
2021/08/23 00:40:42;;;;;;;30.97;27.83;;;;;;;17.47;100.00;98996.41;2080880;28;20326;-75
2021/08/23 00:41:43;;;;;;;30.73;27.93;;;;;;;17.46;100.00;98984.00;2081152;28;20454;-75
2021/08/23 00:42:44;;;;;;;31.40;28.30;;;;;;;17.45;100.00;98991.31;2080165;28;20686;-75
2021/08/23 00:43:46;;;;;;;31.23;28.10;;;;;;;17.45;100.00;99001.34;2079636;28;20572;-76
2021/08/23 00:44:46;;;;;;;31.67;28.57;;;;;;;17.43;100.00;98996.28;2080353;28;20247;-76
2021/08/23 00:45:48;;;;;;;31.50;28.33;;;;;;;17.44;100.00;99003.25;2081025;28;20458;-75
2021/08/23 00:46:49;;;;;;;31.80;28.80;;;;;;;17.42;100.00;99002.03;2081093;28;20243;-75
2021/08/23 00:47:50;;;;;;;32.23;29.10;;;;;;;17.41;100.00;98998.53;2080898;28;20473;-75
2021/08/23 00:48:51;;;;;;;32.03;29.00;;;;;;;17.40;100.00;99007.78;2080290;28;20238;-76
2021/08/23 00:49:53;;;;;;;32.80;29.53;;;;;;;17.41;100.00;99000.47;2079990;28;20461;-76
2021/08/23 00:50:53;;;;;;;31.70;28.67;;;;;;;17.41;100.00;99009.34;2081045;28;20231;-76
2021/08/23 00:51:58;;;;;;;33.13;29.63;;;;;;;17.39;100.00;99005.41;2081002;28;20454;-76
2021/08/23 00:52:59;;;;;;;32.77;29.17;;;;;;;17.38;100.00;99003.84;2080079;28;20247;-76
2021/08/23 00:54:01;;;;;;;32.40;29.17;;;;;;;17.38;100.00;99014.63;2071726;28;20443;-75
2021/08/23 00:55:01;;;;;;;32.70;29.40;;;;;;;17.36;100.00;99003.38;2072363;28;20310;-75
2021/08/23 00:56:03;;;;;;;32.47;29.37;;;;;;;17.37;100.00;99004.94;2080172;28;20458;-76
2021/08/23 00:57:05;;;;;;;33.87;30.27;;;;;;;17.36;100.00;99012.25;2080240;28;20638;-76
2021/08/23 00:58:06;;;;;;;33.23;29.93;;;;;;;17.36;100.00;99016.88;2080836;28;20450;-76
2021/08/23 00:59:08;;;;;;;33.90;30.07;;;;;;;17.34;100.00;99013.75;2080546;28;20889;-75
2021/08/23 01:00:11;;;;;;;34.33;30.83;;;;;;;17.36;100.00;99020.34;2081019;28;20844;-76
2021/08/23 01:01:14;;;;;;;34.17;30.87;;;;;;;17.34;100.00;99009.13;2079974;28;20558;-76
2021/08/23 01:02:20;;;;;;;34.17;30.77;;;;;;;17.35;100.00;99016.09;2080079;28;20477;-76
2021/08/23 01:03:27;;;;;;;35.13;31.63;;;;;;;17.35;100.00;99015.31;2080101;28;20820;-76
2021/08/23 01:04:35;;;;;;;33.90;30.40;;;;;;;17.35;100.00;99009.91;2079713;28;20442;-76
2021/08/23 01:05:36;;;;;;;35.60;31.67;;;;;;;17.34;100.00;99008.34;2080009;28;20500;-75
2021/08/23 01:06:37;;;;;;;35.80;32.10;;;;;;;17.34;100.00;99008.34;2071615;28;20926;-76
2021/08/23 01:07:44;;;;;;;34.97;30.53;;;;;;;17.35;100.00;99015.31;2080045;28;20501;-76
2021/08/23 01:08:48;;;;;;;33.90;30.37;;;;;;;17.35;100.00;99013.38;2079858;28;20466;-76
2021/08/23 01:09:53;;;;;;;34.63;30.93;;;;;;;17.35;100.00;99010.69;2080043;28;20461;-76
2021/08/23 01:10:56;;;;;;;34.10;30.50;;;;;;;17.34;100.00;99013.75;2080410;28;20537;-76
2021/08/23 01:11:57;;;;;;;32.57;29.37;;;;;;;17.35;100.00;99016.09;2080110;28;21572;-76
2021/08/23 01:12:59;;;;;;;33.60;30.10;;;;;;;17.36;100.00;99016.88;2071576;28;20868;-76
2021/08/23 01:14:01;;;;;;;31.87;28.97;;;;;;;17.34;100.00;99017.22;2071354;28;20224;-76
2021/08/23 01:15:05;;;;;;;32.73;29.43;;;;;;;17.34;100.00;99017.22;2080179;28;20461;-75
2021/08/23 01:16:05;;;;;;;32.67;29.23;;;;;;;17.33;100.00;99018.34;2079908;28;20831;-76
2021/08/23 01:17:07;;;;;;;32.10;28.93;;;;;;;17.35;100.00;99020.69;2079912;28;20481;-75
2021/08/23 01:18:08;;;;;;;32.70;29.37;;;;;;;17.33;100.00;99009.47;2080525;28;20222;-76
2021/08/23 01:19:10;;;;;;;30.93;27.93;;;;;;;17.34;100.00;99005.66;2079837;28;20450;-76
2021/08/23 01:20:12;;;;;;;30.70;27.80;;;;;;;17.35;100.00;99005.28;2080130;28;20714;-75
2021/08/23 01:21:18;;;;;;;31.10;27.90;;;;;;;17.36;100.00;99009.56;2079819;28;20517;-75
2021/08/23 01:22:19;;;;;;;33.03;29.70;;;;;;;17.37;100.00;99015.75;2079978;28;20447;-75
2021/08/23 01:23:22;;;;;;;32.27;28.80;;;;;;;17.37;100.00;99007.66;2080796;28;21032;-76
2021/08/23 01:24:24;;;;;;;31.03;27.93;;;;;;;17.37;100.00;99008.44;2079378;28;20458;-77
2021/08/23 01:25:27;;;;;;;32.33;29.10;;;;;;;17.38;100.00;99012.72;2071741;28;21046;-76
2021/08/23 01:26:33;;;;;;;31.10;27.87;;;;;;;17.38;100.00;99010.03;2072227;28;20450;-77
2021/08/23 01:27:37;;;;;;;33.33;28.13;;;;;;;17.37;100.00;99011.13;2080006;28;20903;-77
2021/08/23 01:28:54;;;;;;;30.33;27.30;;;;;;;17.36;100.00;99006.88;2080529;28;20859;-77
2021/08/23 01:29:59;;;;;;;31.27;28.17;;;;;;;17.35;100.00;99013.38;2079449;28;20541;-77
2021/08/23 01:31:07;;;;;;;30.30;27.30;;;;;;;17.36;100.00;99017.66;2080107;28;20588;-77
2021/08/23 01:32:14;;;;;;;32.50;28.27;;;;;;;17.35;100.00;99016.09;2079330;28;20497;-77
2021/08/23 01:33:15;;;;;;;31.20;28.10;;;;;;;17.32;100.00;99016.78;2080062;28;20454;-77
2021/08/23 01:34:17;;;;;;;30.53;27.47;;;;;;;17.34;100.00;99013.75;2079961;28;20492;-77
2021/08/23 01:35:21;;;;;;;31.90;28.90;;;;;;;17.34;100.00;99030.69;2079931;28;20457;-77
2021/08/23 01:36:22;;;;;;;31.07;27.80;;;;;;;17.32;100.00;99022.19;2079535;28;20885;-77
2021/08/23 01:37:25;;;;;;;31.73;28.53;;;;;;;17.32;100.00;99022.19;2071504;28;20459;-77
2021/08/23 01:38:25;;;;;;;31.90;28.73;;;;;;;17.33;100.00;99026.44;2079816;28;20306;-77
2021/08/23 01:39:27;;;;;;;31.80;28.60;;;;;;;17.33;100.00;99021.03;2080846;28;20461;-76
2021/08/23 01:40:28;;;;;;;32.27;28.93;;;;;;;17.33;100.00;99022.97;2079592;28;20238;-76
2021/08/23 01:41:30;;;;;;;32.20;29.10;;;;;;;17.32;100.00;99016.78;2080171;28;20474;-76
2021/08/23 01:42:31;;;;;;;31.87;28.70;;;;;;;17.33;100.00;99018.34;2079856;28;20303;-77
2021/08/23 01:43:33;;;;;;;33.80;30.30;;;;;;;17.32;100.00;99019.47;2079869;28;20496;-76
2021/08/23 01:44:33;;;;;;;33.03;29.83;;;;;;;17.32;100.00;99008.69;2079852;28;20485;-77
2021/08/23 01:45:35;;;;;;;33.50;29.27;;;;;;;17.32;100.00;99011.38;2079875;28;20461;-76
2021/08/23 01:46:36;;;;;;;34.17;30.63;;;;;;;17.31;100.00;99009.81;2080694;28;20219;-76
2021/08/23 01:47:39;;;;;;;32.53;29.43;;;;;;;17.33;100.00;99004.09;2079913;28;20470;-77
2021/08/23 01:48:39;;;;;;;34.60;31.00;;;;;;;17.31;100.00;99004.44;2079507;28;20347;-77
2021/08/23 01:49:41;;;;;;;34.43;30.83;;;;;;;17.31;100.00;99007.13;2080674;28;20454;-76
2021/08/23 01:50:42;;;;;;;34.97;31.23;;;;;;;17.29;100.00;99004.00;2080606;28;20232;-77
2021/08/23 01:51:43;;;;;;;34.87;31.20;;;;;;;17.30;100.00;99002.84;2080584;28;20976;-77
2021/08/23 01:52:44;;;;;;;34.90;31.23;;;;;;;17.29;100.00;99000.47;2079954;28;20244;-77
2021/08/23 01:53:45;;;;;;;33.67;30.37;;;;;;;17.28;100.00;98999.69;2079890;28;20442;-77
2021/08/23 01:54:46;;;;;;;33.40;30.27;;;;;;;17.28;100.00;99001.59;2080857;28;20223;-77
2021/08/23 01:55:48;;;;;;;34.40;30.67;;;;;;;17.27;100.00;98992.72;2079754;28;20462;-77
2021/08/23 01:56:49;;;;;;;35.20;31.77;;;;;;;17.27;100.00;98987.34;2079784;28;20220;-77
2021/08/23 01:57:50;;;;;;;32.97;29.80;;;;;;;17.29;100.00;98990.50;2080190;28;20454;-77
2021/08/23 01:58:51;;;;;;;34.83;31.13;;;;;;;17.27;100.00;98992.72;2080536;28;20482;-77
2021/08/23 01:59:53;;;;;;;34.73;31.27;;;;;;;17.26;100.00;98991.16;2080266;28;20466;-77
2021/08/23 02:00:53;;;;;;;34.60;31.13;;;;;;;17.28;100.00;98982.72;2080458;28;20774;-77
2021/08/23 02:01:55;;;;;;;33.87;30.50;;;;;;;17.27;100.00;98990.03;2080445;28;20826;-76
2021/08/23 02:02:57;;;;;;;32.83;29.63;;;;;;;17.24;100.00;98988.03;2080563;28;20770;-77
2021/08/23 02:03:58;;;;;;;33.47;29.93;;;;;;;17.24;100.00;98991.53;2080279;28;20794;-77
2021/08/23 02:04:59;;;;;;;33.27;29.57;;;;;;;17.23;100.00;98983.78;2080410;28;20539;-78
2021/08/23 02:06:01;;;;;;;35.07;31.27;;;;;;;17.21;100.00;98978.72;2080564;28;20458;-78
2021/08/23 02:07:01;;;;;;;34.83;31.13;;;;;;;17.19;100.00;98991.75;2080549;28;20226;-77
2021/08/23 02:08:03;;;;;;;34.40;30.80;;;;;;;17.20;100.00;98987.94;2079828;28;20541;-76
2021/08/23 02:09:04;;;;;;;33.00;29.83;;;;;;;17.17;100.00;98977.81;2079710;28;20311;-77
2021/08/23 02:10:06;;;;;;;32.67;29.37;;;;;;;17.17;100.00;98979.75;2079787;28;20446;-77
2021/08/23 02:11:07;;;;;;;33.57;29.93;;;;;;;17.15;100.00;98974.69;2079448;28;20247;-76
2021/08/23 02:12:10;;;;;;;34.33;30.63;;;;;;;17.15;100.00;98973.91;2079331;28;20453;-77
2021/08/23 02:13:11;;;;;;;33.17;29.60;;;;;;;17.17;100.00;98977.03;2080596;28;20583;-77
2021/08/23 02:14:12;;;;;;;34.20;30.43;;;;;;;17.14;100.00;98973.13;2080578;28;20453;-77
2021/08/23 02:15:13;;;;;;;33.27;29.97;;;;;;;17.15;100.00;98980.09;2079515;28;20318;-77
2021/08/23 02:16:15;;;;;;;34.77;31.17;;;;;;;17.14;100.00;98969.66;2080007;28;20454;-77
2021/08/23 02:17:16;;;;;;;33.70;30.30;;;;;;;17.14;100.00;98980.44;2079593;28;20227;-77
2021/08/23 02:18:19;;;;;;;33.13;29.93;;;;;;;17.12;100.00;98975.38;2079667;28;20454;-77
2021/08/23 02:19:19;;;;;;;33.37;29.83;;;;;;;17.13;100.00;98976.16;2079945;28;20230;-77
2021/08/23 02:20:21;;;;;;;33.93;30.20;;;;;;;17.10;100.00;98966.03;2080396;28;20971;-77
2021/08/23 02:21:22;;;;;;;33.60;30.30;;;;;;;17.10;100.00;98966.03;2080145;28;20302;-76
2021/08/23 02:22:23;;;;;;;32.93;29.43;;;;;;;17.09;100.00;98964.47;2080441;28;20458;-77
2021/08/23 02:23:24;;;;;;;34.50;31.20;;;;;;;17.09;100.00;98962.56;2080447;28;20681;-77
2021/08/23 02:24:28;;;;;;;32.87;29.57;;;;;;;17.08;100.00;98958.31;2080426;28;20481;-76
2021/08/23 02:25:29;;;;;;;33.40;30.20;;;;;;;17.08;100.00;98957.53;2080399;28;20595;-77
2021/08/23 02:26:31;;;;;;;34.40;31.10;;;;;;;17.08;100.00;98952.13;2081793;28;20879;-77
2021/08/23 02:27:32;;;;;;;34.07;30.60;;;;;;;17.06;100.00;98957.09;2081091;28;20984;-77
2021/08/23 02:28:33;;;;;;;33.97;30.57;;;;;;;17.04;100.00;98953.94;2081388;28;20796;-76
2021/08/23 02:29:34;;;;;;;33.17;29.97;;;;;;;17.03;100.00;98947.78;2081394;28;20498;-76
2021/08/23 02:30:37;;;;;;;34.23;30.60;;;;;;;17.02;100.00;98958.88;2081413;28;20448;-76
2021/08/23 02:31:38;;;;;;;34.20;30.53;;;;;;;17.02;100.00;98950.78;2080928;28;20326;-76
2021/08/23 02:32:40;;;;;;;33.93;30.00;;;;;;;17.02;100.00;98950.78;2072669;28;20451;-76
2021/08/23 02:33:42;;;;;;;33.57;30.17;;;;;;;17.00;100.00;98953.06;2073030;28;20316;-76
2021/08/23 02:34:43;;;;;;;33.87;30.27;;;;;;;17.00;100.00;98959.22;2073073;28;20451;-77
2021/08/23 02:35:44;;;;;;;32.97;29.67;;;;;;;16.99;100.00;98952.25;2081257;28;20919;-76
2021/08/23 02:36:45;;;;;;;35.10;31.60;;;;;;;16.99;100.00;98954.97;2081305;28;20457;-77
2021/08/23 02:37:46;;;;;;;34.10;30.70;;;;;;;17.00;100.00;98961.13;2081330;28;20223;-76
2021/08/23 02:38:49;;;;;;;32.63;29.50;;;;;;;16.98;100.00;98960.69;2082082;28;20469;-76
2021/08/23 02:39:50;;;;;;;32.67;29.53;;;;;;;16.98;100.00;98956.09;2081198;28;20219;-77
2021/08/23 02:40:51;;;;;;;33.73;30.10;;;;;;;16.97;100.00;98957.22;2081103;28;20474;-77
2021/08/23 02:41:53;;;;;;;33.20;29.80;;;;;;;16.98;100.00;98961.47;2080779;28;20223;-76
2021/08/23 02:42:55;;;;;;;34.23;30.60;;;;;;;16.97;100.00;98957.22;2081908;28;20450;-76
2021/08/23 02:43:56;;;;;;;34.10;30.43;;;;;;;17.00;100.00;98963.81;2081933;28;20492;-76
2021/08/23 02:44:57;;;;;;;34.50;30.80;;;;;;;16.98;100.00;98955.31;2081915;28;20960;-76
2021/08/23 02:45:58;;;;;;;33.93;30.37;;;;;;;16.99;100.00;98954.19;2082063;28;20302;-77
2021/08/23 02:46:59;;;;;;;33.70;30.20;;;;;;;17.00;100.00;98955.75;2081043;28;20446;-76
2021/08/23 02:48:00;;;;;;;34.27;30.77;;;;;;;16.99;100.00;98948.78;2081210;28;20219;-77
2021/08/23 02:49:03;;;;;;;35.53;31.80;;;;;;;17.00;100.00;98951.13;2081225;28;20438;-77
2021/08/23 02:50:05;;;;;;;34.53;31.07;;;;;;;16.99;100.00;98943.41;2081123;28;20224;-77
2021/08/23 02:51:06;;;;;;;34.30;30.60;;;;;;;17.00;100.00;98948.44;2081138;28;20450;-77
2021/08/23 02:52:07;;;;;;;33.43;30.03;;;;;;;16.99;100.00;98943.41;2080724;28;20522;-77
2021/08/23 02:53:08;;;;;;;34.73;31.13;;;;;;;16.98;100.00;98941.81;2081889;28;20513;-77
2021/08/23 02:54:09;;;;;;;33.47;30.00;;;;;;;17.00;100.00;98947.66;2081810;28;20302;-76
2021/08/23 02:55:11;;;;;;;34.90;31.10;;;;;;;17.00;100.00;98944.97;2081774;28;20917;-76
2021/08/23 02:56:12;;;;;;;34.13;30.83;;;;;;;17.01;100.00;98946.53;2081723;28;20242;-77
2021/08/23 02:57:13;;;;;;;36.23;32.43;;;;;;;16.99;100.00;98938.78;2081664;28;20434;-76
2021/08/23 02:58:14;;;;;;;35.80;31.93;;;;;;;17.00;100.00;98939.56;2081821;28;20657;-77
2021/08/23 02:59:15;;;;;;;33.93;30.53;;;;;;;17.00;100.00;98936.88;2081910;28;20858;-76
2021/08/23 03:00:16;;;;;;;36.27;32.53;;;;;;;17.00;100.00;98944.97;2082132;28;20706;-77
2021/08/23 03:01:18;;;;;;;37.13;33.43;;;;;;;16.98;100.00;98944.53;2081944;28;20798;-76
2021/08/23 03:02:18;;;;;;;37.27;32.40;;;;;;;17.00;100.00;98942.28;2080925;28;20275;-77
2021/08/23 03:03:20;;;;;;;36.67;32.77;;;;;;;17.00;100.00;98944.97;2081069;28;20454;-77
2021/08/23 03:04:23;;;;;;;37.30;33.30;;;;;;;16.98;100.00;98942.63;2081821;28;20289;-76
2021/08/23 03:05:24;;;;;;;35.67;31.97;;;;;;;16.99;100.00;98944.19;2080243;28;20450;-76
2021/08/23 03:06:25;;;;;;;37.57;32.63;;;;;;;16.99;100.00;98949.56;2081110;28;20541;-76
2021/08/23 03:07:26;;;;;;;36.63;32.73;;;;;;;17.00;100.00;98948.44;2081753;28;20450;-77
2021/08/23 03:08:27;;;;;;;34.40;30.87;;;;;;;17.00;100.00;98944.97;2081682;28;20239;-78
2021/08/23 03:09:29;;;;;;;34.57;30.93;;;;;;;16.99;100.00;98944.19;2081768;28;20442;-77
2021/08/23 03:10:29;;;;;;;35.67;31.87;;;;;;;17.00;100.00;98944.97;2081784;28;20637;-76
2021/08/23 03:11:31;;;;;;;35.43;31.33;;;;;;;16.99;100.00;98938.78;2081035;28;20450;-77
2021/08/23 03:12:32;;;;;;;34.17;30.33;;;;;;;17.01;100.00;98946.53;2081020;28;20582;-77
2021/08/23 03:13:35;;;;;;;34.67;30.10;;;;;;;17.00;100.00;98948.44;2081698;28;20468;-76
2021/08/23 03:14:36;;;;;;;32.37;29.37;;;;;;;17.01;100.00;98941.91;2081837;28;21046;-76
2021/08/23 03:15:37;;;;;;;34.23;30.53;;;;;;;17.00;100.00;98939.56;2081538;28;20837;-76
2021/08/23 03:16:38;;;;;;;33.80;30.30;;;;;;;17.01;100.00;98941.91;2080512;28;20254;-76
2021/08/23 03:17:41;;;;;;;34.50;30.87;;;;;;;17.01;100.00;98938.44;2080843;28;20522;-77
2021/08/23 03:18:41;;;;;;;40.80;33.03;;;;;;;17.02;100.00;98937.31;2080472;28;20538;-77
2021/08/23 03:19:44;;;;;;;38.53;32.33;;;;;;;17.01;100.00;98943.84;2081055;28;20450;-77
2021/08/23 03:20:45;;;;;;;36.77;31.43;;;;;;;17.00;100.00;98934.97;2080826;28;20314;-76
2021/08/23 03:21:47;;;;;;;34.63;31.13;;;;;;;17.01;100.00;98941.13;2080958;28;20449;-76
2021/08/23 03:22:47;;;;;;;35.53;32.03;;;;;;;16.99;100.00;98938.78;2080771;28;20307;-76
2021/08/23 03:23:49;;;;;;;34.47;30.97;;;;;;;17.00;100.00;98934.97;2080905;28;20450;-76
2021/08/23 03:24:50;;;;;;;39.53;32.43;;;;;;;17.00;100.00;98939.56;2081774;28;20314;-77
2021/08/23 03:25:51;;;;;;;40.57;33.47;;;;;;;17.00;100.00;98936.88;2080312;28;20497;-76
2021/08/23 03:26:53;;;;;;;35.97;32.10;;;;;;;17.00;100.00;98943.06;2080592;28;20250;-76
2021/08/23 03:27:54;;;;;;;35.70;31.90;;;;;;;17.00;100.00;98939.56;2080677;28;20541;-77
2021/08/23 03:28:55;;;;;;;36.23;32.37;;;;;;;16.99;100.00;98938.78;2072323;28;20985;-76
2021/08/23 03:29:56;;;;;;;36.50;32.70;;;;;;;16.99;100.00;98936.09;2072931;28;20258;-76
2021/08/23 03:30:58;;;;;;;36.37;32.43;;;;;;;17.01;100.00;98941.13;2080766;28;20505;-76
2021/08/23 03:31:58;;;;;;;35.93;32.27;;;;;;;17.00;100.00;98936.88;2081678;28;20670;-76
2021/08/23 03:33:00;;;;;;;37.00;33.00;;;;;;;17.00;100.00;98940.34;2080662;28;20817;-76
2021/08/23 03:34:01;;;;;;;36.67;32.87;;;;;;;17.01;100.00;98936.53;2080823;28;20307;-76
2021/08/23 03:35:05;;;;;;;37.27;33.23;;;;;;;17.00;100.00;98931.47;2081523;28;20627;-77
2021/08/23 03:36:07;;;;;;;36.90;32.80;;;;;;;17.01;100.00;98933.84;2081623;28;20223;-76
2021/08/23 03:37:08;;;;;;;36.53;32.80;;;;;;;17.02;100.00;98937.31;2081295;28;20543;-78
2021/08/23 03:38:09;;;;;;;35.43;31.63;;;;;;;17.02;100.00;98937.31;2081422;28;20458;-76
2021/08/23 03:39:11;;;;;;;35.40;31.70;;;;;;;17.02;100.00;98940.00;2080358;28;20524;-76
2021/08/23 03:40:12;;;;;;;34.60;30.90;;;;;;;17.03;100.00;98942.38;2080823;28;20261;-76
2021/08/23 03:41:14;;;;;;;36.33;31.47;;;;;;;17.06;100.00;98933.59;2081464;28;20462;-76
2021/08/23 03:42:15;;;;;;;35.53;31.83;;;;;;;17.11;100.00;98946.03;2080430;28;20443;-76
2021/08/23 03:43:16;;;;;;;35.13;31.53;;;;;;;17.12;100.00;98948.44;2072660;28;20458;-77
2021/08/23 03:44:17;;;;;;;36.37;31.80;;;;;;;17.13;100.00;98939.22;2080915;28;20303;-76
2021/08/23 03:45:18;;;;;;;37.23;33.17;;;;;;;17.16;100.00;98946.59;2081385;28;20450;-76
2021/08/23 03:46:19;;;;;;;36.17;31.57;;;;;;;17.19;100.00;98950.50;2080687;28;20227;-76
2021/08/23 03:47:21;;;;;;;34.67;31.23;;;;;;;17.19;100.00;98947.81;2080747;28;20458;-77
2021/08/23 03:48:22;;;;;;;38.20;32.20;;;;;;;17.18;100.00;98941.66;2080915;28;20315;-76
2021/08/23 03:49:24;;;;;;;35.80;32.07;;;;;;;17.18;100.00;98943.56;2081355;28;20460;-76
2021/08/23 03:50:27;;;;;;;36.83;33.10;;;;;;;17.19;100.00;98945.13;2081476;28;20461;-76
2021/08/23 03:51:29;;;;;;;36.00;32.40;;;;;;;17.17;100.00;98945.47;2080430;28;20454;-76
2021/08/23 03:52:29;;;;;;;37.13;33.03;;;;;;;17.19;100.00;98945.13;2080668;28;20477;-76
2021/08/23 03:53:33;;;;;;;37.63;33.60;;;;;;;17.19;100.00;98948.59;2081434;28;21003;-76
2021/08/23 03:54:33;;;;;;;37.93;33.57;;;;;;;17.16;100.00;98938.50;2081318;28;20457;-76
2021/08/23 03:55:35;;;;;;;35.03;31.40;;;;;;;17.20;100.00;98944.81;2081444;28;20924;-77
2021/08/23 03:56:36;;;;;;;34.63;31.07;;;;;;;17.18;100.00;98946.25;2081261;28;20777;-76
2021/08/23 03:57:37;;;;;;;34.23;30.73;;;;;;;17.20;100.00;98950.19;2081423;28;20786;-76
2021/08/23 03:58:38;;;;;;;35.20;31.60;;;;;;;17.19;100.00;98953.22;2080274;28;20227;-75
2021/08/23 03:59:40;;;;;;;36.63;32.83;;;;;;;17.19;100.00;98954.00;2080610;28;20963;-76
2021/08/23 04:00:40;;;;;;;37.97;33.93;;;;;;;17.19;100.00;98947.81;2080436;28;20226;-76
2021/08/23 04:01:42;;;;;;;40.03;34.27;;;;;;;17.21;100.00;98950.97;2080496;28;20456;-76
2021/08/23 04:02:45;;;;;;;38.83;34.33;;;;;;;17.29;100.00;98958.16;2081266;28;20667;-76
2021/08/23 04:03:46;;;;;;;41.67;34.50;;;;;;;17.30;100.00;98953.53;2080649;28;20924;-77
2021/08/23 04:04:47;;;;;;;35.90;32.00;;;;;;;17.27;100.00;98948.81;2080555;28;20485;-77
2021/08/23 04:05:50;;;;;;;37.03;33.07;;;;;;;17.25;100.00;98946.47;2080446;28;20454;-76
2021/08/23 04:06:51;;;;;;;39.27;33.03;;;;;;;17.24;100.00;98945.69;2072165;28;20220;-76
2021/08/23 04:07:53;;;;;;;38.57;34.43;;;;;;;17.25;100.00;98951.84;2080557;28;20509;-77
2021/08/23 04:08:53;;;;;;;36.70;32.87;;;;;;;17.26;100.00;98950.72;2079977;28;20635;-76
2021/08/23 04:09:55;;;;;;;35.73;32.13;;;;;;;17.24;100.00;98948.38;2080456;28;20454;-76
2021/08/23 04:10:56;;;;;;;36.17;32.40;;;;;;;17.25;100.00;98946.47;2072264;28;20232;-77
2021/08/23 04:11:57;;;;;;;36.73;32.97;;;;;;;17.25;100.00;98949.16;2072398;28;20527;-76
2021/08/23 04:12:59;;;;;;;37.17;33.23;;;;;;;17.25;100.00;98946.47;2080487;28;20686;-76
2021/08/23 04:14:00;;;;;;;36.87;33.13;;;;;;;17.23;100.00;98948.72;2081306;28;20485;-77
2021/08/23 04:15:01;;;;;;;36.63;32.80;;;;;;;17.25;100.00;98943.75;2081278;28;20446;-77
2021/08/23 04:16:03;;;;;;;36.20;32.57;;;;;;;17.24;100.00;98951.06;2080351;28;20294;-76
2021/08/23 04:17:04;;;;;;;36.87;33.03;;;;;;;17.26;100.00;98947.25;2080638;28;20450;-76
2021/08/23 04:18:06;;;;;;;35.53;31.10;;;;;;;17.23;100.00;98948.72;2081057;28;20458;-77
2021/08/23 04:19:06;;;;;;;35.30;31.60;;;;;;;17.26;100.00;98953.41;2080809;28;20596;-76
2021/08/23 04:20:09;;;;;;;34.00;30.50;;;;;;;17.29;100.00;98947.34;2081164;28;20936;-77
2021/08/23 04:21:11;;;;;;;35.73;32.03;;;;;;;17.29;100.00;98949.25;2081048;28;20231;-76
2021/08/23 04:22:13;;;;;;;34.50;29.83;;;;;;;17.27;100.00;98954.19;2080630;28;20533;-76
2021/08/23 04:23:13;;;;;;;33.20;29.60;;;;;;;17.25;100.00;98951.84;2080419;28;20474;-76
2021/08/23 04:24:15;;;;;;;35.50;30.87;;;;;;;17.25;100.00;98959.94;2081296;28;20446;-75
2021/08/23 04:25:16;;;;;;;35.57;31.93;;;;;;;17.22;100.00;98963.34;2081241;28;20219;-76
2021/08/23 04:26:17;;;;;;;40.00;32.07;;;;;;;17.22;100.00;98955.25;2080248;28;20449;-76
2021/08/23 04:27:18;;;;;;;35.40;31.60;;;;;;;17.23;100.00;98959.50;2080489;28;20302;-76
2021/08/23 04:28:19;;;;;;;35.40;31.80;;;;;;;17.23;100.00;98959.50;2080210;28;20445;-76
2021/08/23 04:29:20;;;;;;;38.23;33.40;;;;;;;17.20;100.00;98965.56;2081126;28;20688;-75
2021/08/23 04:30:22;;;;;;;35.90;31.93;;;;;;;17.23;100.00;98965.69;2081165;28;20489;-76
2021/08/23 04:31:24;;;;;;;36.53;32.83;;;;;;;17.24;100.00;98961.06;2079462;28;20306;-77
2021/08/23 04:32:25;;;;;;;38.83;32.17;;;;;;;17.25;100.00;98973.44;2080315;28;20964;-76
2021/08/23 04:33:26;;;;;;;36.50;32.70;;;;;;;17.24;100.00;98975.34;2080247;28;20537;-76
2021/08/23 04:34:28;;;;;;;38.00;33.87;;;;;;;17.26;100.00;98985.00;2079562;28;20524;-76
2021/08/23 04:35:28;;;;;;;38.60;34.53;;;;;;;17.26;100.00;98985.78;2080399;28;20724;-76
2021/08/23 04:36:31;;;;;;;38.57;34.67;;;;;;;17.27;100.00;98986.56;2080956;28;20793;-77
2021/08/23 04:37:33;;;;;;;38.30;34.17;;;;;;;17.27;100.00;98981.94;2080886;28;20242;-77
2021/08/23 04:38:34;;;;;;;41.03;36.63;;;;;;;17.26;100.00;98985.00;2081117;28;20865;-76
2021/08/23 04:39:35;;;;;;;39.63;35.33;;;;;;;17.27;100.00;98981.94;2080169;28;20450;-76
2021/08/23 04:40:36;;;;;;;42.77;36.10;;;;;;;17.27;100.00;98978.47;2072126;28;20770;-76